N288AV KSHV-4R7
Flight info
| Callsign | N288AV |
|---|---|
| Flight time | 0h 24m |
| Altitude | 23000 |
| Route | JEGIL |
| Aircraft | C700/L-VGDW/C |
Departure
| Time | 2026-05-04 10:41 |
|---|---|
| Airport | Shreveport Regional Airport (KSHV) |
Arrival
| Time | 2026-05-04 11:06 |
|---|---|
| Airport | Eunice Airport (4R7) |
| Time | Latitude | Longitude | Altitude | Speed | Heading |
|---|---|---|---|---|---|
| 2026-05-04 10:32 | 32.45172 | -93.82785 | 251 ft | 0 kts | 121° |
| 2026-05-04 10:39 | 32.45025 | -93.82791 | 248 ft | 14 kts | 247° |
| 2026-05-04 10:39 | 32.45064 | -93.82941 | 249 ft | 24 kts | 300° |
| 2026-05-04 10:39 | 32.45170 | -93.83091 | 255 ft | 24 kts | 320° |
| 2026-05-04 10:40 | 32.45304 | -93.83214 | 260 ft | 24 kts | 322° |
| 2026-05-04 10:40 | 32.45418 | -93.83315 | 265 ft | 17 kts | 323° |
| 2026-05-04 10:40 | 32.45414 | -93.83437 | 264 ft | 17 kts | 234° |
| 2026-05-04 10:40 | 32.45369 | -93.83473 | 262 ft | 6 kts | 157° |
| 2026-05-04 10:41 | 32.45309 | -93.83422 | 262 ft | 20 kts | 143° |
| 2026-05-04 10:41 | 32.44978 | -93.83125 | 246 ft | 108 kts | 143° |
| 2026-05-04 10:41 | 32.44180 | -93.82414 | 610 ft | 164 kts | 145° |
| 2026-05-04 10:41 | 32.43191 | -93.81498 | 1591 ft | 193 kts | 144° |
| 2026-05-04 10:42 | 32.42114 | -93.80438 | 2850 ft | 212 kts | 142° |
| 2026-05-04 10:42 | 32.40895 | -93.79334 | 4158 ft | 233 kts | 148° |
| 2026-05-04 10:42 | 32.39424 | -93.78312 | 5467 ft | 259 kts | 150° |
| 2026-05-04 10:42 | 32.37830 | -93.77142 | 6947 ft | 274 kts | 147° |
| 2026-05-04 10:43 | 32.36231 | -93.75888 | 8508 ft | 283 kts | 146° |
| 2026-05-04 10:44 | 32.22775 | -93.65604 | 18319 ft | 365 kts | 150° |
| 2026-05-04 10:45 | 32.20601 | -93.63945 | 19468 ft | 373 kts | 151° |
| 2026-05-04 10:45 | 32.18410 | -93.62277 | 20522 ft | 382 kts | 151° |
| 2026-05-04 10:45 | 32.16138 | -93.60546 | 21543 ft | 390 kts | 152° |
| 2026-05-04 10:45 | 32.13847 | -93.58802 | 22544 ft | 398 kts | 152° |
| 2026-05-04 10:46 | 32.11481 | -93.57007 | 23073 ft | 421 kts | 153° |
| 2026-05-04 10:46 | 32.08904 | -93.55061 | 23088 ft | 454 kts | 152° |
| 2026-05-04 10:46 | 32.06192 | -93.52995 | 23087 ft | 472 kts | 152° |
| 2026-05-04 10:46 | 32.03446 | -93.50888 | 23087 ft | 475 kts | 152° |
| 2026-05-04 10:47 | 32.00641 | -93.48760 | 23087 ft | 476 kts | 152° |
| 2026-05-04 10:47 | 31.97869 | -93.46669 | 23088 ft | 475 kts | 152° |
| 2026-05-04 10:47 | 31.95075 | -93.44551 | 23086 ft | 474 kts | 152° |
| 2026-05-04 10:47 | 31.92321 | -93.42461 | 23086 ft | 475 kts | 152° |
| 2026-05-04 10:49 | 31.72811 | -93.27739 | 23096 ft | 477 kts | 152° |
| 2026-05-04 10:49 | 31.70013 | -93.25632 | 23100 ft | 478 kts | 152° |
| 2026-05-04 10:50 | 31.67234 | -93.23540 | 23099 ft | 476 kts | 152° |
| 2026-05-04 10:51 | 31.47756 | -93.08928 | 22393 ft | 458 kts | 152° |
| 2026-05-04 10:52 | 31.45139 | -93.06965 | 21807 ft | 440 kts | 152° |
| 2026-05-04 10:52 | 31.42571 | -93.05055 | 21230 ft | 429 kts | 152° |
| 2026-05-04 10:52 | 31.40071 | -93.03196 | 20669 ft | 427 kts | 152° |
| 2026-05-04 10:54 | 31.22935 | -92.90427 | 16793 ft | 401 kts | 150° |
| 2026-05-04 10:54 | 31.20608 | -92.88698 | 16272 ft | 397 kts | 150° |
| 2026-05-04 10:56 | 31.04984 | -92.77114 | 12643 ft | 342 kts | 148° |
| 2026-05-04 10:56 | 31.03033 | -92.75671 | 12194 ft | 328 kts | 148° |
| 2026-05-04 10:56 | 31.01159 | -92.74285 | 11773 ft | 316 kts | 148° |
| 2026-05-04 10:57 | 30.99316 | -92.72924 | 11352 ft | 306 kts | 148° |
| 2026-05-04 10:57 | 30.97558 | -92.71625 | 10954 ft | 299 kts | 148° |
| 2026-05-04 10:57 | 30.95798 | -92.70327 | 10557 ft | 297 kts | 148° |
| 2026-05-04 10:57 | 30.94065 | -92.69046 | 10167 ft | 296 kts | 148° |
| 2026-05-04 10:58 | 30.92332 | -92.67770 | 9761 ft | 295 kts | 148° |
| 2026-05-04 10:58 | 30.90586 | -92.66482 | 9352 ft | 293 kts | 147° |
| 2026-05-04 10:58 | 30.88888 | -92.65229 | 8970 ft | 290 kts | 147° |
| 2026-05-04 10:58 | 30.87196 | -92.63984 | 8585 ft | 288 kts | 147° |
| 2026-05-04 10:59 | 30.85500 | -92.62734 | 8205 ft | 286 kts | 147° |
| 2026-05-04 10:59 | 30.83828 | -92.61505 | 7831 ft | 284 kts | 147° |
| 2026-05-04 10:59 | 30.82163 | -92.60278 | 7439 ft | 284 kts | 147° |
| 2026-05-04 10:59 | 30.80507 | -92.59061 | 7081 ft | 283 kts | 147° |
| 2026-05-04 11:00 | 30.78827 | -92.57824 | 6705 ft | 282 kts | 146° |
| 2026-05-04 11:01 | 30.67532 | -92.49533 | 4148 ft | 269 kts | 147° |
| 2026-05-04 11:02 | 30.65957 | -92.48381 | 3796 ft | 268 kts | 147° |
| 2026-05-04 11:02 | 30.64255 | -92.47483 | 3432 ft | 268 kts | 164° |
| 2026-05-04 11:05 | 30.47623 | -92.42668 | 147 ft | 130 kts | 165° |
| 2026-05-04 11:06 | 30.46776 | -92.42423 | 39 ft | 112 kts | 166° |
| 2026-05-04 11:06 | 30.46488 | -92.42348 | 44 ft | 11 kts | 177° |
| 2026-05-04 11:06 | 30.46469 | -92.42331 | 42 ft | 2 kts | 24° |
| 2026-05-04 11:06 | 30.46541 | -92.42355 | 44 ft | 21 kts | 344° |
| 2026-05-04 11:08 | 30.47002 | -92.42670 | 40 ft | 0 kts | 109° |